createdAt,value
2022-10-08T00:01:57.085Z,20.60
2022-10-08T00:03:58.456Z,20.60
2022-10-08T00:05:59.780Z,20.60
2022-10-08T00:08:02.230Z,20.58
2022-10-08T00:10:06.264Z,20.57
2022-10-08T00:12:07.551Z,20.56
2022-10-08T00:14:09.324Z,20.55
2022-10-08T00:16:12.286Z,20.53
2022-10-08T00:18:13.669Z,20.56
2022-10-08T00:20:14.949Z,20.58
2022-10-08T00:22:16.242Z,20.60
2022-10-08T00:24:17.560Z,20.63
2022-10-08T00:26:18.887Z,20.68
2022-10-08T00:28:20.231Z,20.72
2022-10-08T00:30:21.600Z,20.74
2022-10-08T00:32:22.890Z,20.74
2022-10-08T00:34:24.191Z,20.73
2022-10-08T00:36:25.550Z,20.73
2022-10-08T00:38:26.842Z,20.70
2022-10-08T00:40:28.128Z,20.69
2022-10-08T00:42:29.436Z,20.67
2022-10-08T00:44:30.715Z,20.66
2022-10-08T00:46:32.024Z,20.63
2022-10-08T00:48:33.541Z,20.62
2022-10-08T00:50:34.798Z,20.60
2022-10-08T00:52:36.298Z,20.58
2022-10-08T00:54:37.575Z,20.55
2022-10-08T00:56:38.907Z,20.54
2022-10-08T00:58:40.171Z,20.51
2022-10-08T01:00:41.535Z,20.51
2022-10-08T01:02:42.911Z,20.49
2022-10-08T01:04:44.431Z,20.48
2022-10-08T01:06:45.722Z,20.48
2022-10-08T01:08:47.003Z,20.50
2022-10-08T01:10:48.447Z,20.52
2022-10-08T01:12:50.355Z,20.55
2022-10-08T01:14:51.655Z,20.59
2022-10-08T01:16:54.265Z,20.61
2022-10-08T01:18:55.559Z,20.62
2022-10-08T01:20:56.869Z,20.62
2022-10-08T01:22:58.147Z,20.62
2022-10-08T01:25:17.992Z,20.62
2022-10-08T01:27:19.271Z,20.63
2022-10-08T01:29:21.510Z,20.65
2022-10-08T01:31:22.889Z,20.63
2022-10-08T01:33:24.243Z,20.66
2022-10-08T01:35:26.215Z,20.64
2022-10-08T01:37:28.380Z,20.63
2022-10-08T01:39:29.966Z,20.63
2022-10-08T01:41:31.315Z,20.61
2022-10-08T01:43:32.644Z,20.61
2022-10-08T01:45:33.973Z,20.60
2022-10-08T01:47:35.283Z,20.57
2022-10-08T01:49:36.548Z,20.56
2022-10-08T01:51:38.105Z,20.55
2022-10-08T01:53:39.406Z,20.58
2022-10-08T01:55:40.735Z,20.58
2022-10-08T01:57:41.993Z,20.60
2022-10-08T01:59:43.282Z,20.61
2022-10-08T02:01:44.754Z,20.61
2022-10-08T02:04:06.047Z,20.63
2022-10-08T02:06:07.311Z,20.66
2022-10-08T02:08:08.626Z,20.68
2022-10-08T02:10:09.890Z,20.71
2022-10-08T02:12:11.214Z,20.73
2022-10-08T02:14:12.495Z,20.73
2022-10-08T02:16:14.788Z,20.75
2022-10-08T02:18:16.087Z,20.81
2022-10-08T02:20:17.737Z,20.83
2022-10-08T02:22:19.023Z,20.84
2022-10-08T02:24:20.349Z,20.85
2022-10-08T02:26:21.638Z,20.86
2022-10-08T02:28:22.963Z,20.85
2022-10-08T02:30:24.288Z,20.84
2022-10-08T02:32:25.583Z,20.80
2022-10-08T02:34:26.909Z,20.76
2022-10-08T02:36:28.182Z,20.72
2022-10-08T02:38:29.459Z,20.72
2022-10-08T02:40:30.759Z,20.73
2022-10-08T02:42:32.082Z,20.74
2022-10-08T02:44:33.525Z,20.73
2022-10-08T02:46:35.222Z,20.72
2022-10-08T02:48:36.514Z,20.71
2022-10-08T02:50:38.013Z,20.73
2022-10-08T02:52:39.721Z,20.75
2022-10-08T02:54:41.012Z,20.75
2022-10-08T02:56:42.307Z,20.83
2022-10-08T02:58:43.787Z,20.86
2022-10-08T03:00:45.059Z,20.87
2022-10-08T03:02:46.734Z,20.86
2022-10-08T03:04:48.226Z,20.86
2022-10-08T03:06:49.485Z,20.84
2022-10-08T03:08:50.937Z,20.85
2022-10-08T03:10:52.247Z,20.86
2022-10-08T03:12:53.604Z,20.85
2022-10-08T03:14:54.888Z,20.84
2022-10-08T03:16:56.199Z,20.83
2022-10-08T03:18:59.186Z,20.82
2022-10-08T03:21:00.519Z,20.81
2022-10-08T03:23:02.015Z,20.82
2022-10-08T03:25:03.289Z,20.82
2022-10-08T03:27:04.567Z,20.83
2022-10-08T03:29:05.834Z,20.82
2022-10-08T03:31:07.213Z,20.81
2022-10-08T03:33:08.523Z,20.83
2022-10-08T03:35:09.857Z,20.82
2022-10-08T03:37:11.195Z,20.83
2022-10-08T03:39:12.498Z,20.77
2022-10-08T03:41:13.788Z,20.74
2022-10-08T03:43:15.098Z,20.69
2022-10-08T03:45:16.374Z,20.68
2022-10-08T03:47:17.663Z,20.67
2022-10-08T03:49:18.943Z,20.65
2022-10-08T03:51:20.251Z,20.70
2022-10-08T03:53:21.530Z,20.73
2022-10-08T03:55:22.863Z,20.73
2022-10-08T03:57:24.135Z,20.73
2022-10-08T03:59:25.411Z,20.70
2022-10-08T04:01:26.732Z,20.69
2022-10-08T04:03:28.066Z,20.67
2022-10-08T04:05:29.342Z,20.67
2022-10-08T04:07:30.671Z,20.65
2022-10-08T04:09:31.964Z,20.66
2022-10-08T04:11:33.262Z,20.66
2022-10-08T04:13:34.579Z,20.66
2022-10-08T04:15:35.885Z,20.66
2022-10-08T04:17:38.008Z,20.67
2022-10-08T04:19:39.302Z,20.64
2022-10-08T04:21:40.814Z,20.63
2022-10-08T04:23:42.089Z,20.63
2022-10-08T04:25:43.363Z,20.63
2022-10-08T04:27:49.120Z,20.61
2022-10-08T04:29:50.386Z,20.66
2022-10-08T04:31:51.667Z,20.69
2022-10-08T04:33:53.014Z,20.71
2022-10-08T04:35:59.727Z,20.72
2022-10-08T04:38:01.495Z,20.71
2022-10-08T04:40:02.779Z,20.71
2022-10-08T04:42:04.047Z,20.71
2022-10-08T04:44:05.338Z,20.71
2022-10-08T04:46:06.639Z,20.70
2022-10-08T04:48:08.010Z,20.70
2022-10-08T04:50:09.272Z,20.72
2022-10-08T04:52:10.902Z,20.70
2022-10-08T04:54:12.220Z,20.71
2022-10-08T04:56:13.478Z,20.73
2022-10-08T04:58:14.756Z,20.73
2022-10-08T05:00:18.696Z,20.79
2022-10-08T05:02:20.263Z,20.73
2022-10-08T05:04:21.595Z,20.69
2022-10-08T05:06:22.898Z,20.67
2022-10-08T05:08:24.230Z,20.66
2022-10-08T05:10:25.512Z,20.68
2022-10-08T05:12:26.782Z,20.68
2022-10-08T05:14:28.148Z,20.71
2022-10-08T05:16:29.490Z,20.71
2022-10-08T05:18:30.754Z,20.72
2022-10-08T05:20:32.078Z,20.71
2022-10-08T05:22:33.371Z,20.69
2022-10-08T05:24:34.699Z,20.71
2022-10-08T05:26:57.061Z,20.72
2022-10-08T05:28:57.222Z,20.68
2022-10-08T05:30:58.618Z,20.66
2022-10-08T05:32:59.934Z,20.67
2022-10-08T05:35:01.243Z,20.65
2022-10-08T05:37:02.532Z,20.68
2022-10-08T05:39:03.854Z,20.67
2022-10-08T05:41:05.161Z,20.65
2022-10-08T05:43:06.455Z,20.65
2022-10-08T05:45:07.767Z,20.65
2022-10-08T05:47:09.054Z,20.66
2022-10-08T05:49:10.351Z,20.65
2022-10-08T05:51:11.616Z,20.64
2022-10-08T05:53:12.946Z,20.63
2022-10-08T05:55:14.259Z,20.63
2022-10-08T05:57:15.533Z,20.63
2022-10-08T05:59:17.013Z,20.60
2022-10-08T06:01:20.103Z,20.59
2022-10-08T06:03:21.374Z,20.58
2022-10-08T06:05:22.739Z,20.55
2022-10-08T06:07:24.013Z,20.53
2022-10-08T06:09:25.303Z,20.52
2022-10-08T06:11:27.139Z,20.51
2022-10-08T06:13:28.415Z,20.49
2022-10-08T06:15:29.708Z,20.48
2022-10-08T06:17:30.987Z,20.48
2022-10-08T06:19:34.151Z,20.48
2022-10-08T06:21:35.407Z,20.44
2022-10-08T06:23:36.689Z,20.41
2022-10-08T06:25:38.167Z,20.40
2022-10-08T06:27:39.451Z,20.46
2022-10-08T06:29:40.743Z,20.50
2022-10-08T06:31:42.223Z,20.53
2022-10-08T06:33:43.563Z,20.55
2022-10-08T06:35:44.830Z,20.54
2022-10-08T06:37:46.151Z,20.43
2022-10-08T06:39:48.568Z,20.52
2022-10-08T06:41:49.959Z,20.51
2022-10-08T06:43:51.270Z,20.50
2022-10-08T06:45:53.321Z,20.55
2022-10-08T06:47:54.601Z,20.57
2022-10-08T06:49:55.891Z,20.57
2022-10-08T06:51:57.142Z,20.61
2022-10-08T06:54:02.884Z,20.60
2022-10-08T06:56:08.233Z,20.57
2022-10-08T06:58:09.506Z,20.57
2022-10-08T07:00:10.783Z,20.68
2022-10-08T07:02:12.152Z,20.11
2022-10-08T07:04:13.507Z,19.66
2022-10-08T07:06:14.779Z,19.38
2022-10-08T07:08:16.198Z,19.29
2022-10-08T07:10:18.543Z,19.20
2022-10-08T07:12:19.988Z,19.14
2022-10-08T07:14:21.475Z,18.62
2022-10-08T07:16:23.287Z,19.19
2022-10-08T07:18:24.707Z,19.34
2022-10-08T07:20:26.203Z,19.84
2022-10-08T07:22:27.547Z,20.07
2022-10-08T07:24:28.870Z,20.14
2022-10-08T07:26:30.223Z,20.17
2022-10-08T07:28:31.700Z,20.17
2022-10-08T07:30:33.234Z,20.18
2022-10-08T07:32:34.511Z,20.17
2022-10-08T07:34:35.792Z,20.17
2022-10-08T07:36:37.128Z,20.16
2022-10-08T07:38:38.415Z,20.16
2022-10-08T07:40:39.692Z,20.17
2022-10-08T07:42:41.170Z,20.18
2022-10-08T07:44:42.431Z,20.18
2022-10-08T07:46:43.787Z,20.18
2022-10-08T07:48:45.134Z,20.21
2022-10-08T07:50:46.540Z,20.22
2022-10-08T07:52:48.082Z,20.23
2022-10-08T07:54:49.559Z,20.23
2022-10-08T07:56:50.908Z,20.22
2022-10-08T07:58:52.223Z,20.21
2022-10-08T08:00:53.610Z,20.19
2022-10-08T08:02:54.954Z,20.81
2022-10-08T08:04:56.291Z,21.37
2022-10-08T08:06:57.611Z,21.82
2022-10-08T08:08:58.942Z,21.80
2022-10-08T08:11:00.264Z,21.78
2022-10-08T08:13:01.567Z,21.92
2022-10-08T08:15:03.121Z,21.95
2022-10-08T08:17:04.414Z,21.96
2022-10-08T08:19:05.691Z,21.93
2022-10-08T08:21:06.987Z,21.76
2022-10-08T08:23:08.307Z,21.98
2022-10-08T08:25:09.575Z,22.05
2022-10-08T08:27:10.891Z,21.45
2022-10-08T08:29:12.247Z,21.06
2022-10-08T08:31:14.028Z,20.81
2022-10-08T08:33:15.281Z,20.69
2022-10-08T08:35:16.616Z,20.62
2022-10-08T08:37:17.961Z,20.56
2022-10-08T08:39:19.268Z,20.51
2022-10-08T08:41:20.841Z,20.49
2022-10-08T08:43:22.363Z,20.47
2022-10-08T08:45:45.478Z,20.46
2022-10-08T08:47:46.724Z,20.44
2022-10-08T08:49:48.055Z,20.45
2022-10-08T08:51:49.476Z,20.47
2022-10-08T08:53:50.762Z,20.46
2022-10-08T08:55:52.198Z,20.46
2022-10-08T08:57:53.492Z,20.45
2022-10-08T08:59:54.966Z,20.46
2022-10-08T09:01:56.287Z,20.47
2022-10-08T09:03:57.550Z,20.47
2022-10-08T09:05:58.831Z,20.44
2022-10-08T09:08:00.203Z,20.40
2022-10-08T09:10:01.711Z,20.35
2022-10-08T09:12:03.033Z,20.34
2022-10-08T09:14:04.311Z,20.31
2022-10-08T09:16:05.655Z,20.29
2022-10-08T09:18:07.015Z,20.28
2022-10-08T09:20:08.286Z,20.28
2022-10-08T09:22:09.576Z,20.25
2022-10-08T09:24:10.858Z,20.22
2022-10-08T09:26:13.590Z,20.21
2022-10-08T09:28:14.894Z,20.19
2022-10-08T09:30:16.179Z,20.18
2022-10-08T09:32:17.663Z,20.16
2022-10-08T09:34:19.091Z,20.15
2022-10-08T09:36:20.354Z,20.13
2022-10-08T09:38:21.615Z,20.12
2022-10-08T09:40:22.971Z,20.10
2022-10-08T09:42:24.255Z,20.07
2022-10-08T09:44:25.537Z,20.06
2022-10-08T09:46:26.857Z,20.04
2022-10-08T09:48:28.158Z,20.03
2022-10-08T09:50:29.446Z,20.04
2022-10-08T09:52:30.750Z,20.04
2022-10-08T09:54:32.019Z,20.38
2022-10-08T09:56:33.904Z,21.08
2022-10-08T09:58:35.697Z,21.13
2022-10-08T10:00:37.156Z,21.08
2022-10-08T10:02:38.431Z,21.15
2022-10-08T10:04:40.478Z,21.17
2022-10-08T10:06:41.750Z,21.24
2022-10-08T10:08:48.273Z,21.28
2022-10-08T10:10:49.560Z,21.33
2022-10-08T10:12:50.911Z,21.22
2022-10-08T10:14:52.234Z,20.90
2022-10-08T10:16:53.611Z,20.87
2022-10-08T10:18:54.905Z,21.00
2022-10-08T10:20:58.489Z,20.85
2022-10-08T10:22:59.826Z,20.74
2022-10-08T10:25:01.126Z,20.66
2022-10-08T10:27:02.399Z,20.62
2022-10-08T10:29:03.667Z,20.60
2022-10-08T10:31:04.997Z,20.57
2022-10-08T10:33:06.349Z,20.60
2022-10-08T10:35:07.655Z,20.61
2022-10-08T10:37:08.950Z,20.67
2022-10-08T10:39:10.258Z,20.67
2022-10-08T10:41:11.535Z,20.72
2022-10-08T10:43:12.803Z,20.68
2022-10-08T10:45:14.157Z,20.65
2022-10-08T10:47:15.554Z,20.61
2022-10-08T10:49:16.841Z,20.65
2022-10-08T10:51:18.140Z,20.64
2022-10-08T10:53:20.385Z,20.69
2022-10-08T10:55:21.664Z,20.72
2022-10-08T10:57:22.922Z,20.71
2022-10-08T10:59:24.183Z,20.77
2022-10-08T11:01:25.509Z,20.78
2022-10-08T11:03:26.870Z,20.76
2022-10-08T11:05:28.149Z,21.01
2022-10-08T11:07:29.426Z,21.04
2022-10-08T11:09:30.929Z,21.16
2022-10-08T11:11:33.321Z,21.17
2022-10-08T11:13:34.763Z,21.13
2022-10-08T11:15:36.178Z,21.14
2022-10-08T11:17:37.528Z,21.07
2022-10-08T11:19:38.838Z,20.99
2022-10-08T11:21:40.130Z,20.93
2022-10-08T11:23:41.427Z,20.90
2022-10-08T11:26:03.020Z,20.04
2022-10-08T11:28:04.160Z,20.86
2022-10-08T11:30:05.791Z,20.81
2022-10-08T11:32:07.119Z,20.77
2022-10-08T11:34:08.419Z,20.73
2022-10-08T11:36:09.689Z,20.70
2022-10-08T11:38:10.970Z,20.70
2022-10-08T11:40:12.260Z,20.75
2022-10-08T11:42:13.562Z,20.89
2022-10-08T11:44:14.887Z,21.02
2022-10-08T11:46:16.866Z,21.11
2022-10-08T11:48:18.171Z,21.05
2022-10-08T11:50:19.444Z,21.09
2022-10-08T11:52:20.771Z,21.07
2022-10-08T11:54:22.042Z,21.04
2022-10-08T11:56:23.324Z,20.93
2022-10-08T11:58:24.798Z,20.91
2022-10-08T12:00:26.304Z,20.86
2022-10-08T12:02:27.798Z,20.85
2022-10-08T12:04:29.178Z,20.84
2022-10-08T12:06:30.551Z,20.81
2022-10-08T12:08:31.863Z,20.79
2022-10-08T12:10:33.220Z,20.84
2022-10-08T12:12:34.477Z,20.89
2022-10-08T12:14:35.770Z,20.96
2022-10-08T12:16:37.096Z,21.11
2022-10-08T12:18:38.373Z,21.01
2022-10-08T12:20:39.637Z,20.97
2022-10-08T12:22:40.922Z,20.97
2022-10-08T12:24:50.167Z,20.96
2022-10-08T12:26:51.895Z,20.98
2022-10-08T12:28:53.221Z,20.96
2022-10-08T12:30:54.553Z,20.91
2022-10-08T12:32:55.924Z,20.92
2022-10-08T12:34:57.316Z,21.04
2022-10-08T12:36:58.640Z,20.86
2022-10-08T12:38:59.910Z,21.00
2022-10-08T12:41:01.200Z,20.94
2022-10-08T12:43:02.478Z,20.87
2022-10-08T12:45:03.755Z,20.77
2022-10-08T12:47:05.146Z,20.73
2022-10-08T12:49:06.526Z,20.71
2022-10-08T12:51:07.820Z,20.70
2022-10-08T12:53:09.214Z,20.71
2022-10-08T12:55:10.471Z,20.73
2022-10-08T12:57:11.737Z,20.74
2022-10-08T12:59:13.076Z,20.75
2022-10-08T13:01:14.398Z,20.77
2022-10-08T13:03:16.510Z,20.76
2022-10-08T13:05:17.823Z,20.74
2022-10-08T13:07:19.134Z,20.73
2022-10-08T13:09:20.468Z,20.79
2022-10-08T13:11:22.074Z,20.74
2022-10-08T13:13:23.333Z,20.69
2022-10-08T13:15:26.101Z,20.67
2022-10-08T13:17:27.366Z,20.73
2022-10-08T13:19:28.877Z,20.80
2022-10-08T13:21:30.174Z,20.84
2022-10-08T13:23:31.467Z,20.90
2022-10-08T13:25:32.791Z,20.78
2022-10-08T13:27:34.131Z,20.71
2022-10-08T13:29:35.501Z,20.74
2022-10-08T13:31:37.055Z,20.74
2022-10-08T13:33:38.974Z,20.67
2022-10-08T13:35:40.234Z,20.62
2022-10-08T13:37:41.503Z,20.60
2022-10-08T13:39:42.826Z,20.61
2022-10-08T13:41:44.124Z,20.61
2022-10-08T13:43:45.395Z,20.57
2022-10-08T13:45:46.710Z,20.50
2022-10-08T13:47:48.428Z,20.47
2022-10-08T13:49:50.041Z,20.41
2022-10-08T13:51:51.388Z,20.35
2022-10-08T13:53:56.942Z,20.31
2022-10-08T13:55:58.611Z,20.27
2022-10-08T13:58:02.747Z,20.23
2022-10-08T14:00:04.011Z,20.21
2022-10-08T14:02:05.367Z,20.19
2022-10-08T14:04:06.691Z,20.17
2022-10-08T14:06:07.967Z,20.17
2022-10-08T14:08:09.290Z,20.16
2022-10-08T14:10:11.598Z,20.16
2022-10-08T14:12:12.852Z,19.32
2022-10-08T14:14:14.686Z,20.14
2022-10-08T14:16:16.031Z,20.13
2022-10-08T14:18:17.419Z,20.14
2022-10-08T14:20:18.870Z,20.15
2022-10-08T14:22:20.152Z,20.14
2022-10-08T14:24:21.466Z,20.12
2022-10-08T14:26:22.799Z,20.13
2022-10-08T14:28:24.125Z,20.10
2022-10-08T14:30:25.473Z,20.08
2022-10-08T14:32:26.731Z,20.06
2022-10-08T14:34:28.067Z,20.05
2022-10-08T14:36:29.354Z,20.04
2022-10-08T14:38:34.055Z,20.03
2022-10-08T14:40:35.350Z,20.01
2022-10-08T14:42:36.602Z,20.01
2022-10-08T14:44:37.870Z,20.01
2022-10-08T14:46:39.134Z,20.02
2022-10-08T14:48:40.575Z,20.01
2022-10-08T14:50:41.874Z,20.08
2022-10-08T14:52:44.564Z,20.14
2022-10-08T14:54:46.139Z,20.09
2022-10-08T14:56:47.610Z,20.05
2022-10-08T14:58:48.877Z,20.02
2022-10-08T15:00:50.271Z,19.99
2022-10-08T15:02:52.027Z,19.97
2022-10-08T15:04:54.874Z,19.97
2022-10-08T15:06:56.182Z,19.97
2022-10-08T15:08:57.454Z,19.97
2022-10-08T15:10:58.728Z,19.97
2022-10-08T15:13:00.004Z,19.96
2022-10-08T15:15:01.315Z,19.95
2022-10-08T15:17:02.590Z,19.93
2022-10-08T15:19:03.916Z,19.91
2022-10-08T15:21:05.203Z,19.91
2022-10-08T15:23:07.197Z,19.88
2022-10-08T15:25:08.491Z,19.87
2022-10-08T15:27:09.767Z,19.86
2022-10-08T15:29:11.038Z,19.84
2022-10-08T15:31:12.357Z,19.84
2022-10-08T15:33:13.631Z,19.85
2022-10-08T15:35:14.943Z,19.85
2022-10-08T15:37:16.219Z,19.87
2022-10-08T15:39:17.822Z,19.88
2022-10-08T15:41:19.087Z,19.89
2022-10-08T15:43:20.415Z,19.91
2022-10-08T15:45:21.732Z,19.91
2022-10-08T15:47:23.014Z,19.90
2022-10-08T15:49:24.350Z,19.88
2022-10-08T15:51:25.670Z,19.87
2022-10-08T15:53:26.942Z,19.86
2022-10-08T15:55:28.415Z,19.85
2022-10-08T15:57:29.732Z,19.84
2022-10-08T15:59:31.023Z,19.84
2022-10-08T16:01:32.378Z,19.10
2022-10-08T16:03:33.765Z,19.81
2022-10-08T16:05:35.018Z,19.80
2022-10-08T16:07:36.528Z,19.77
2022-10-08T16:09:38.043Z,19.76
2022-10-08T16:11:39.339Z,19.75
2022-10-08T16:13:40.596Z,19.73
2022-10-08T16:15:41.867Z,19.72
2022-10-08T16:17:43.138Z,19.71
2022-10-08T16:19:44.665Z,19.69
2022-10-08T16:21:45.938Z,19.69
2022-10-08T16:23:47.215Z,19.69
2022-10-08T16:25:48.490Z,19.69
2022-10-08T16:27:50.268Z,19.72
2022-10-08T16:29:51.769Z,19.74
2022-10-08T16:31:53.758Z,19.77
2022-10-08T16:33:55.040Z,19.78
2022-10-08T16:35:56.362Z,19.82
2022-10-08T16:37:57.641Z,19.85
2022-10-08T16:40:03.785Z,19.88
2022-10-08T16:42:05.111Z,19.91
2022-10-08T16:44:09.867Z,19.93
2022-10-08T16:46:13.573Z,19.96
2022-10-08T16:48:14.931Z,19.97
2022-10-08T16:50:16.215Z,19.97
2022-10-08T16:52:17.484Z,19.98
2022-10-08T16:54:18.812Z,19.96
2022-10-08T16:56:20.086Z,19.96
2022-10-08T16:58:21.402Z,19.96
2022-10-08T17:00:22.680Z,19.97
2022-10-08T17:02:26.104Z,19.96
2022-10-08T17:04:28.391Z,19.97
2022-10-08T17:06:29.679Z,19.98
2022-10-08T17:08:31.012Z,19.98
2022-10-08T17:10:32.299Z,19.98
2022-10-08T17:12:33.569Z,20.00
2022-10-08T17:14:35.459Z,19.97
2022-10-08T17:16:36.809Z,19.95
2022-10-08T17:18:38.194Z,19.94
2022-10-08T17:20:39.876Z,19.92
2022-10-08T17:22:41.216Z,19.91
2022-10-08T17:24:42.554Z,19.89
2022-10-08T17:26:43.830Z,19.89
2022-10-08T17:28:45.266Z,19.89
2022-10-08T17:30:46.670Z,19.87
2022-10-08T17:32:48.279Z,19.85
2022-10-08T17:34:49.724Z,19.83
2022-10-08T17:36:51.022Z,19.83
2022-10-08T17:38:52.809Z,19.80
2022-10-08T17:40:54.852Z,19.77
2022-10-08T17:42:56.213Z,19.78
2022-10-08T17:44:58.628Z,19.76
2022-10-08T17:47:00.031Z,19.74
2022-10-08T17:49:01.375Z,19.75
2022-10-08T17:51:02.860Z,19.75
2022-10-08T17:53:04.155Z,19.76
2022-10-08T17:55:05.442Z,19.77
2022-10-08T17:57:06.720Z,19.77
2022-10-08T17:59:08.122Z,19.78
2022-10-08T18:01:09.513Z,19.79
2022-10-08T18:03:10.916Z,19.78
2022-10-08T18:05:12.233Z,19.78
2022-10-08T18:07:14.799Z,19.75
2022-10-08T18:09:16.099Z,19.76
2022-10-08T18:11:17.397Z,19.76
2022-10-08T18:13:18.755Z,19.76
2022-10-08T18:15:20.039Z,19.76
2022-10-08T18:17:21.310Z,19.76
2022-10-08T18:19:22.796Z,18.95
2022-10-08T18:21:24.081Z,19.74
2022-10-08T18:23:25.680Z,19.73
2022-10-08T18:25:27.275Z,19.72
2022-10-08T18:27:28.612Z,19.73
2022-10-08T18:29:29.900Z,19.72
2022-10-08T18:31:31.323Z,19.71
2022-10-08T18:33:32.760Z,19.72
2022-10-08T18:35:35.080Z,19.72
2022-10-08T18:37:36.391Z,19.74
2022-10-08T18:39:37.725Z,19.77
2022-10-08T18:41:40.695Z,19.78
2022-10-08T18:43:42.146Z,19.81
2022-10-08T18:45:43.416Z,19.83
2022-10-08T18:47:44.706Z,19.85
2022-10-08T18:49:47.322Z,19.88
2022-10-08T18:51:48.607Z,19.90
2022-10-08T18:53:49.870Z,19.91
2022-10-08T18:55:51.159Z,19.91
2022-10-08T18:57:52.418Z,19.90
2022-10-08T18:59:53.759Z,19.89
2022-10-08T19:01:59.088Z,19.90
2022-10-08T19:04:00.885Z,19.86
2022-10-08T19:06:02.206Z,19.87
2022-10-08T19:08:04.230Z,19.87
2022-10-08T19:10:05.527Z,19.86
2022-10-08T19:12:08.112Z,19.87
2022-10-08T19:14:09.450Z,19.87
2022-10-08T19:16:13.867Z,19.86
2022-10-08T19:18:15.233Z,19.86
2022-10-08T19:20:16.594Z,19.86
2022-10-08T19:22:17.945Z,19.85
2022-10-08T19:24:20.432Z,19.85
2022-10-08T19:26:21.762Z,19.84
2022-10-08T19:28:23.142Z,19.85
2022-10-08T19:30:28.371Z,19.83
2022-10-08T19:32:32.945Z,19.81
2022-10-08T19:34:34.259Z,19.80
2022-10-08T19:36:35.535Z,19.77
2022-10-08T19:38:37.026Z,19.75
2022-10-08T19:40:38.370Z,19.73
2022-10-08T19:42:40.512Z,19.72
2022-10-08T19:44:41.881Z,19.70
2022-10-08T19:46:43.663Z,19.70
2022-10-08T19:48:44.966Z,19.69
2022-10-08T19:50:46.271Z,19.69
2022-10-08T19:52:51.623Z,19.68
2022-10-08T19:54:53.243Z,19.69
2022-10-08T19:56:55.924Z,19.71
2022-10-08T19:58:57.304Z,19.72
2022-10-08T20:00:58.704Z,19.74
2022-10-08T20:03:00.047Z,19.74
2022-10-08T20:05:01.391Z,19.75
2022-10-08T20:07:02.712Z,19.75
2022-10-08T20:09:04.374Z,19.77
2022-10-08T20:11:05.659Z,19.75
2022-10-08T20:13:07.168Z,19.75
2022-10-08T20:15:10.065Z,19.74
2022-10-08T20:17:11.353Z,19.73
2022-10-08T20:19:12.639Z,19.71
2022-10-08T20:21:13.901Z,19.71
2022-10-08T20:23:15.187Z,19.70
2022-10-08T20:25:21.149Z,19.68
2022-10-08T20:27:23.319Z,19.67
2022-10-08T20:29:30.040Z,19.65
2022-10-08T20:31:32.234Z,19.64
2022-10-08T20:33:33.542Z,19.63
2022-10-08T20:35:34.811Z,19.63
2022-10-08T20:37:36.110Z,19.60
2022-10-08T20:39:37.382Z,19.60
2022-10-08T20:41:38.655Z,19.58
2022-10-08T20:43:40.242Z,19.57
2022-10-08T20:45:41.518Z,19.57
2022-10-08T20:47:42.789Z,19.57
2022-10-08T20:49:44.105Z,19.58
2022-10-08T20:51:46.032Z,19.57
2022-10-08T20:53:47.352Z,19.55
2022-10-08T20:55:48.670Z,19.55
2022-10-08T20:57:49.991Z,19.53
2022-10-08T20:59:51.312Z,19.52
2022-10-08T21:01:52.714Z,19.52
2022-10-08T21:03:54.673Z,19.51
2022-10-08T21:05:55.944Z,19.49
2022-10-08T21:07:57.250Z,19.50
2022-10-08T21:09:59.531Z,19.49
2022-10-08T21:12:00.848Z,19.50
2022-10-08T21:14:03.607Z,19.51
2022-10-08T21:16:05.023Z,19.52
2022-10-08T21:18:06.426Z,19.55
2022-10-08T21:20:07.703Z,19.56
2022-10-08T21:22:08.987Z,19.57
2022-10-08T21:24:10.338Z,19.59
2022-10-08T21:26:11.626Z,19.61
2022-10-08T21:28:12.983Z,19.62
2022-10-08T21:30:14.332Z,19.63
2022-10-08T21:32:16.828Z,19.62
2022-10-08T21:34:18.154Z,19.62
2022-10-08T21:36:19.471Z,19.60
2022-10-08T21:38:20.737Z,19.58
2022-10-08T21:40:22.018Z,19.57
2022-10-08T21:42:23.324Z,19.56
2022-10-08T21:44:24.635Z,19.56
2022-10-08T21:46:25.906Z,19.57
2022-10-08T21:48:27.252Z,19.57
2022-10-08T21:50:29.659Z,19.58
2022-10-08T21:52:32.453Z,19.58
2022-10-08T21:54:33.751Z,19.59
2022-10-08T21:56:35.014Z,19.61
2022-10-08T21:58:36.278Z,19.60
2022-10-08T22:00:37.607Z,19.61
2022-10-08T22:02:38.942Z,19.59
2022-10-08T22:04:40.238Z,19.59
2022-10-08T22:06:41.550Z,19.58
2022-10-08T22:08:42.837Z,19.57
2022-10-08T22:10:44.191Z,19.55
2022-10-08T22:12:45.697Z,19.55
2022-10-08T22:14:47.186Z,19.39
2022-10-08T22:16:48.536Z,19.55
2022-10-08T22:18:49.842Z,19.60
2022-10-08T22:20:51.185Z,19.96
2022-10-08T22:22:52.454Z,20.26
2022-10-08T22:24:53.720Z,20.76
2022-10-08T22:26:55.058Z,20.75
2022-10-08T22:28:56.331Z,20.65
2022-10-08T22:30:57.623Z,20.86
2022-10-08T22:32:58.903Z,20.74
2022-10-08T22:35:00.227Z,20.68
2022-10-08T22:37:01.652Z,20.67
2022-10-08T22:39:02.949Z,20.73
2022-10-08T22:41:05.269Z,20.81
2022-10-08T22:43:06.568Z,20.82
2022-10-08T22:45:07.963Z,20.83
2022-10-08T22:47:09.269Z,21.20
2022-10-08T22:49:10.548Z,21.05
2022-10-08T22:51:11.952Z,21.64
2022-10-08T22:53:13.247Z,21.39
2022-10-08T22:55:14.613Z,21.52
2022-10-08T22:57:15.920Z,21.28
2022-10-08T22:59:17.215Z,21.18
2022-10-08T23:01:18.490Z,21.17
2022-10-08T23:03:19.850Z,21.42
2022-10-08T23:05:21.226Z,21.30
2022-10-08T23:07:22.506Z,21.25
2022-10-08T23:09:23.833Z,21.25
2022-10-08T23:11:25.633Z,21.55
2022-10-08T23:13:26.961Z,21.38
2022-10-08T23:15:28.280Z,21.01
2022-10-08T23:17:29.603Z,20.78
2022-10-08T23:19:30.888Z,20.95
2022-10-08T23:21:32.235Z,20.82
2022-10-08T23:23:33.585Z,20.72
2022-10-08T23:25:34.845Z,20.64
2022-10-08T23:27:36.216Z,20.56
2022-10-08T23:29:37.505Z,20.52
2022-10-08T23:31:38.833Z,20.48
2022-10-08T23:33:40.171Z,20.44
2022-10-08T23:35:41.473Z,20.41
2022-10-08T23:37:42.772Z,20.40
2022-10-08T23:39:44.082Z,20.38
2022-10-08T23:41:45.350Z,20.35
2022-10-08T23:43:46.623Z,20.35
2022-10-08T23:45:47.970Z,20.31
2022-10-08T23:47:49.274Z,20.31
2022-10-08T23:49:50.598Z,20.30
2022-10-08T23:51:52.109Z,20.29
2022-10-08T23:53:53.387Z,20.26
2022-10-08T23:55:54.659Z,20.23
2022-10-08T23:57:55.955Z,20.22
2022-10-08T23:59:57.235Z,20.20
